Time;durP1;ratioP1;P1;durP2;ratioP2;P2;SDS_P1;SDS_P2;PMS_P1;PMS_P2;Temp;Humidity;BMP_temperature;BMP_pressure;BME280_temperature;BME280_humidity;BME280_pressure;Samples;Min_cycle;Max_cycle;Signal;HPM_P1;HPM_P2
2021/12/21 00:02:23;;;;;;;68.18;23.98;;;;;;;-3.40;95.75;99681.13;5034984;28;20274;-66
2021/12/21 00:04:48;;;;;;;73.68;24.67;;;;;;;-3.42;95.93;99682.75;5034657;28;20221;-66
2021/12/21 00:07:14;;;;;;;97.90;29.92;;;;;;;-3.40;95.86;99684.59;5035316;28;20029;-66
2021/12/21 00:09:39;;;;;;;92.10;34.50;;;;;;;-3.34;95.99;99686.59;5032828;28;20048;-66
2021/12/21 00:12:05;;;;;;;83.35;31.23;;;;;;;-3.32;96.51;99685.00;5033757;28;20022;-66
2021/12/21 00:15:01;;;;;;;78.00;26.20;;;;;;;-3.36;95.25;99677.94;5035184;28;20025;-66
2021/12/21 00:17:43;;;;;;;84.63;30.08;;;;;;;-3.42;95.37;99664.75;5034207;28;20032;-66
2021/12/21 00:24:56;;;;;;;88.03;27.50;;;;;;;-3.49;93.60;99654.91;5033314;28;20024;-66
2021/12/21 00:27:24;;;;;;;80.78;26.58;;;;;;;-3.39;93.03;99652.03;5034102;28;20064;-66
2021/12/21 00:29:50;;;;;;;64.72;23.08;;;;;;;-3.44;93.44;99645.75;5033691;28;20168;-66
2021/12/21 00:32:15;;;;;;;77.32;23.83;;;;;;;-3.58;93.31;99644.19;5030025;28;20072;-66
2021/12/21 00:34:41;;;;;;;73.70;22.98;;;;;;;-3.58;93.94;99645.03;5038550;28;20053;-66
2021/12/21 00:37:07;;;;;;;46.78;19.48;;;;;;;-3.75;93.73;99637.25;5032868;28;20318;-66
2021/12/21 00:39:33;;;;;;;53.15;18.45;;;;;;;-3.75;94.35;99645.88;5033095;28;20036;-66
2021/12/21 00:42:01;;;;;;;52.25;17.75;;;;;;;-3.86;94.23;99640.97;5034535;28;20022;-66
2021/12/21 00:44:26;;;;;;;43.40;17.02;;;;;;;-3.74;95.11;99641.63;5034173;28;20018;-66
2021/12/21 00:46:52;;;;;;;43.50;15.10;;;;;;;-3.85;93.64;99633.34;5035868;28;20043;-66
2021/12/21 00:49:17;;;;;;;39.45;15.05;;;;;;;-3.78;94.66;99634.53;5035389;28;20028;-66
2021/12/21 00:51:45;;;;;;;42.97;16.63;;;;;;;-3.74;94.08;99636.47;5032813;28;20024;-66
2021/12/21 00:54:12;;;;;;;41.85;15.50;;;;;;;-3.70;93.69;99628.09;5031711;28;20381;-66
2021/12/21 00:56:37;;;;;;;46.15;15.63;;;;;;;-3.79;93.79;99627.63;5039158;28;20074;-66
2021/12/21 00:59:04;;;;;;;47.47;16.70;;;;;;;-3.86;93.46;99620.41;5033078;28;20100;-66
2021/12/21 01:01:30;;;;;;;58.55;20.33;;;;;;;-3.89;93.96;99617.66;5031715;28;20088;-66
2021/12/21 01:03:58;;;;;;;67.63;22.17;;;;;;;-3.91;94.31;99621.84;5031489;28;20225;-66
2021/12/21 01:06:39;;;;;;;61.05;21.48;;;;;;;-3.82;94.48;99623.22;5043526;28;20063;-66
2021/12/21 01:09:18;;;;;;;71.53;21.77;;;;;;;-3.79;93.94;99614.75;5039728;28;20041;-66
2021/12/21 01:11:49;;;;;;;64.53;21.20;;;;;;;-3.83;93.69;99616.28;5036725;28;20056;-66
2021/12/21 01:19:37;;;;;;;55.85;19.60;;;;;;;-3.93;94.13;99613.19;5030762;28;20111;-66
2021/12/21 01:22:18;;;;;;;66.13;18.10;;;;;;;-3.98;93.59;99600.06;5033998;28;20022;-66
2021/12/21 01:32:19;;;;;;;41.78;15.32;;;;;;;-3.95;93.93;99605.38;5029640;28;20018;-66
2021/12/21 01:35:02;;;;;;;33.90;15.02;;;;;;;-3.91;93.79;99603.84;5034470;28;20318;-66
2021/12/21 01:37:43;;;;;;;47.90;14.38;;;;;;;-4.01;94.61;99599.91;5032255;28;20023;-66
2021/12/21 01:43:14;;;;;;;43.10;14.07;;;;;;;-4.02;94.00;99599.84;5034710;28;20033;-66
2021/12/21 01:51:10;;;;;;;33.33;12.15;;;;;;;-4.02;94.24;99604.97;5031928;28;20095;-66
2021/12/21 01:53:37;;;;;;;37.28;12.32;;;;;;;-4.00;94.15;99611.06;5033936;28;20187;-66
2021/12/21 01:56:04;;;;;;;34.08;12.35;;;;;;;-4.03;94.18;99601.50;5033713;28;20014;-66
2021/12/21 01:58:30;;;;;;;38.25;10.50;;;;;;;-3.91;94.63;99602.16;5032736;28;20017;-66
2021/12/21 02:00:55;;;;;;;30.38;9.57;;;;;;;-3.88;95.30;99611.72;5030845;28;20257;-66
2021/12/21 02:03:21;;;;;;;29.52;9.05;;;;;;;-3.70;95.64;99617.81;5032157;28;20024;-66
2021/12/21 02:05:46;;;;;;;34.28;9.13;;;;;;;-3.77;94.81;99605.44;5031823;28;20329;-66
2021/12/21 02:08:12;;;;;;;29.42;8.90;;;;;;;-3.95;94.06;99601.91;5034683;28;20017;-66
2021/12/21 02:10:38;;;;;;;23.20;7.55;;;;;;;-3.89;94.14;99599.66;5033403;28;20022;-66
2021/12/21 02:13:04;;;;;;;33.30;9.88;;;;;;;-4.08;94.61;99590.13;5030506;28;20083;-66
2021/12/21 02:15:29;;;;;;;25.08;8.40;;;;;;;-4.05;95.22;99599.66;5035641;28;20380;-66
2021/12/21 02:23:07;;;;;;;24.23;8.07;;;;;;;-3.85;95.65;99604.16;5040591;28;20013;-66
2021/12/21 02:30:42;;;;;;;29.65;9.10;;;;;;;-3.88;93.36;99596.28;5036326;28;20095;-66
2021/12/21 02:33:07;;;;;;;23.20;8.10;;;;;;;-3.91;93.52;99585.84;5033864;28;20025;-66
2021/12/21 02:35:33;;;;;;;30.05;8.27;;;;;;;-3.99;93.58;99589.72;5038578;28;21206;-66
2021/12/21 02:37:59;;;;;;;22.58;8.50;;;;;;;-3.97;93.93;99582.94;5038089;28;20025;-66
2021/12/21 02:40:24;;;;;;;23.63;8.13;;;;;;;-3.93;94.02;99592.59;5038332;28;20025;-66
2021/12/21 02:42:49;;;;;;;28.85;7.53;;;;;;;-3.98;94.24;99584.66;5038538;28;20089;-66
2021/12/21 02:45:15;;;;;;;22.63;7.78;;;;;;;-3.90;94.06;99596.19;5034436;28;20033;-66
2021/12/21 02:47:40;;;;;;;20.38;7.68;;;;;;;-3.96;94.22;99583.03;5035452;28;20025;-66
2021/12/21 02:50:07;;;;;;;23.38;6.72;;;;;;;-3.93;94.68;99578.03;5036160;28;20030;-66
2021/12/21 02:52:33;;;;;;;32.35;7.85;;;;;;;-3.87;94.38;99572.31;5036455;28;20084;-66
2021/12/21 02:55:00;;;;;;;24.60;7.40;;;;;;;-3.92;94.50;99568.66;5034854;28;20029;-66
2021/12/21 02:57:26;;;;;;;23.63;7.03;;;;;;;-3.93;94.81;99572.91;5036365;28;20028;-66
2021/12/21 02:59:51;;;;;;;34.42;9.00;;;;;;;-4.02;94.85;99568.97;5035447;28;20029;-66
2021/12/21 03:02:17;;;;;;;20.02;7.78;;;;;;;-4.00;94.63;99554.50;5036770;28;20059;-66
2021/12/21 03:04:44;;;;;;;27.27;8.07;;;;;;;-4.17;94.70;99556.22;5032457;28;20060;-66
2021/12/21 03:09:41;;;;;;;25.48;8.13;;;;;;;-3.96;94.47;99561.59;5034917;28;20261;-66
2021/12/21 03:14:40;;;;;;;19.40;6.47;;;;;;;-3.64;96.86;99576.97;5037567;28;20017;-66
2021/12/21 03:17:07;;;;;;;22.77;8.82;;;;;;;-3.77;95.45;99579.72;5036491;28;20089;-66
2021/12/21 03:19:36;;;;;;;15.70;6.65;;;;;;;-3.68;95.79;99577.59;5041529;28;20048;-66
2021/12/21 03:22:02;;;;;;;21.90;5.72;;;;;;;-3.50;96.49;99581.13;5046568;28;20083;-67
2021/12/21 03:24:28;;;;;;;17.58;6.25;;;;;;;-3.07;98.09;99600.47;5039289;28;20088;-67
2021/12/21 03:26:53;;;;;;;17.35;5.90;;;;;;;-2.61;98.70;99612.16;5033750;28;20029;-67
2021/12/21 03:29:18;;;;;;;20.23;6.10;;;;;;;-2.37;98.57;99603.00;5033053;28;20052;-67
2021/12/21 03:31:44;;;;;;;27.65;6.13;;;;;;;-2.21;98.21;99602.88;5036680;28;20018;-67
2021/12/21 03:34:10;;;;;;;15.95;6.25;;;;;;;-2.43;96.52;99575.22;5033936;28;20023;-67
2021/12/21 03:36:35;;;;;;;25.23;6.18;;;;;;;-2.61;94.79;99570.91;5035846;28;20049;-67
2021/12/21 03:39:06;;;;;;;17.70;5.40;;;;;;;-2.90;93.05;99558.38;5034012;28;20036;-67
2021/12/21 03:41:32;;;;;;;27.50;5.63;;;;;;;-2.76;94.72;99567.63;5037579;28;20025;-67
2021/12/21 03:44:01;;;;;;;27.95;6.72;;;;;;;-2.69;95.43;99559.38;5033948;28;20074;-67
2021/12/21 03:46:28;;;;;;;15.35;5.57;;;;;;;-2.54;96.48;99566.13;5036047;28;20217;-67
2021/12/21 03:48:53;;;;;;;23.00;6.95;;;;;;;-2.53;95.99;99561.88;5035872;28;20032;-67
2021/12/21 03:51:20;;;;;;;30.67;6.82;;;;;;;-2.19;96.88;99575.47;5035536;28;20342;-67
2021/12/21 03:53:47;;;;;;;31.17;7.07;;;;;;;-2.09;96.07;99569.91;5033907;28;20014;-67
2021/12/21 03:58:39;;;;;;;24.45;6.72;;;;;;;-2.15;94.64;99561.91;5035954;28;20025;-67
2021/12/21 04:01:04;;;;;;;22.13;7.65;;;;;;;-2.14;94.51;99558.50;5037664;28;20021;-67
2021/12/21 04:03:29;;;;;;;21.63;6.90;;;;;;;-1.96;94.98;99558.44;5033255;28;20225;-67
2021/12/21 04:05:55;;;;;;;32.85;10.13;;;;;;;-2.06;93.07;99551.97;5032819;28;20052;-67
2021/12/21 04:08:20;;;;;;;20.05;7.47;;;;;;;-2.07;93.49;99549.31;5037141;28;20207;-67
2021/12/21 04:10:46;;;;;;;11.02;5.22;;;;;;;-2.01;93.60;99555.66;5034383;28;20030;-67
2021/12/21 04:13:11;;;;;;;29.33;6.97;;;;;;;-2.14;93.47;99548.19;5042569;28;20089;-67
2021/12/21 04:15:50;;;;;;;20.80;8.23;;;;;;;-2.26;92.73;99542.47;5042883;28;20025;-67
2021/12/21 04:18:18;;;;;;;29.63;10.35;;;;;;;-2.48;91.68;99542.31;5040019;28;20049;-67
2021/12/21 04:20:44;;;;;;;25.05;9.75;;;;;;;-2.65;91.79;99532.94;5034307;28;20021;-67
2021/12/21 04:23:09;;;;;;;25.02;8.55;;;;;;;-2.71;91.89;99530.97;5033501;28;20032;-67
2021/12/21 04:25:35;;;;;;;32.63;9.95;;;;;;;-2.89;91.20;99531.78;5033466;28;20052;-67
2021/12/21 04:28:01;;;;;;;30.70;11.02;;;;;;;-3.00;91.46;99527.84;5035664;28;20036;-66
2021/12/21 04:30:26;;;;;;;36.83;10.85;;;;;;;-3.10;90.59;99523.06;5032502;28;20022;-66
2021/12/21 04:32:52;;;;;;;25.17;9.48;;;;;;;-3.23;91.17;99513.00;5034549;28;20025;-66
2021/12/21 04:35:20;;;;;;;31.08;9.95;;;;;;;-3.40;92.34;99516.44;5028608;28;20341;-64
2021/12/21 04:37:51;;;;;;;30.88;10.48;;;;;;;-3.41;93.28;99527.53;5043170;28;20036;-65
2021/12/21 04:40:19;;;;;;;36.70;10.40;;;;;;;-3.37;92.83;99526.88;5045120;28;20026;-65
2021/12/21 04:42:44;;;;;;;27.48;9.57;;;;;;;-3.41;92.43;99524.97;5044530;28;20025;-65
2021/12/21 04:45:10;;;;;;;32.00;10.35;;;;;;;-3.51;92.33;99512.47;5044737;28;20101;-65
2021/12/21 04:47:35;;;;;;;31.92;10.10;;;;;;;-3.53;92.05;99519.22;5044690;28;20090;-65
2021/12/21 04:50:01;;;;;;;24.70;9.32;;;;;;;-3.54;92.55;99523.47;5044672;28;20025;-65
2021/12/21 04:52:26;;;;;;;41.28;11.35;;;;;;;-3.69;93.06;99526.97;5044611;28;20028;-65
2021/12/21 04:54:52;;;;;;;28.40;9.43;;;;;;;-3.66;92.75;99528.03;5044556;28;20384;-65
2021/12/21 04:57:17;;;;;;;27.05;9.90;;;;;;;-3.71;93.39;99524.31;5044757;28;20043;-65
2021/12/21 04:59:42;;;;;;;23.80;10.15;;;;;;;-3.75;93.41;99529.22;5044453;28;20071;-65
2021/12/21 05:02:08;;;;;;;25.75;9.13;;;;;;;-3.77;92.99;99533.44;5044485;28;20085;-65
2021/12/21 05:04:35;;;;;;;25.77;9.05;;;;;;;-3.78;93.67;99531.66;5044243;28;20044;-65
2021/12/21 05:07:00;;;;;;;27.45;8.00;;;;;;;-3.78;93.38;99537.69;5076070;28;20036;-65
2021/12/21 05:09:29;;;;;;;20.40;7.38;;;;;;;-3.79;93.68;99535.94;5044316;28;20025;-65
2021/12/21 05:12:02;;;;;;;18.90;5.88;;;;;;;-3.71;93.95;99542.31;5044223;28;20032;-65
2021/12/21 05:14:28;;;;;;;15.73;5.53;;;;;;;-3.74;94.51;99543.88;5044508;28;20085;-65
2021/12/21 05:16:54;;;;;;;23.35;4.80;;;;;;;-3.70;94.43;99538.06;5044429;28;20253;-65
2021/12/21 05:19:19;;;;;;;8.93;3.42;;;;;;;-3.80;94.17;99543.56;5044008;28;20049;-65
2021/12/21 05:21:45;;;;;;;16.13;3.92;;;;;;;-3.79;94.61;99540.19;5044107;28;20025;-65
2021/12/21 05:24:10;;;;;;;18.98;4.70;;;;;;;-3.79;94.40;99535.03;5044291;28;20075;-65
2021/12/21 05:26:37;;;;;;;8.18;3.03;;;;;;;-3.89;93.74;99527.66;5044093;28;20048;-65
2021/12/21 05:29:03;;;;;;;9.70;3.22;;;;;;;-3.88;94.45;99534.56;5044285;28;20240;-65
2021/12/21 05:31:28;;;;;;;15.32;4.05;;;;;;;-3.93;94.65;99536.03;5044021;28;20033;-65
2021/12/21 05:33:54;;;;;;;16.98;4.07;;;;;;;-3.90;95.48;99541.34;5042601;28;20213;-65
2021/12/21 05:36:20;;;;;;;16.90;4.38;;;;;;;-3.80;94.58;99541.00;5043550;28;20025;-65
2021/12/21 05:38:50;;;;;;;12.02;3.38;;;;;;;-3.85;94.52;99534.72;5043912;28;20212;-65
2021/12/21 05:41:27;;;;;;;10.52;3.67;;;;;;;-3.84;93.88;99536.47;5044109;28;20049;-65
2021/12/21 05:43:53;;;;;;;10.63;3.55;;;;;;;-3.84;93.22;99531.34;5044084;28;20096;-65
2021/12/21 05:46:19;;;;;;;11.63;3.60;;;;;;;-3.96;92.73;99530.75;5044109;28;20017;-65
2021/12/21 05:48:44;;;;;;;18.00;3.50;;;;;;;-4.09;93.05;99529.22;5043829;28;20329;-65
2021/12/21 05:51:09;;;;;;;18.02;3.80;;;;;;;-4.07;94.18;99534.44;5043879;28;20035;-65
2021/12/21 05:53:35;;;;;;;25.67;6.43;;;;;;;-4.08;94.91;99535.25;5043801;28;20292;-65
2021/12/21 05:56:00;;;;;;;15.15;4.70;;;;;;;-4.07;94.79;99542.13;5046379;28;20048;-65
2021/12/21 05:58:26;;;;;;;44.88;12.13;;;;;;;-4.05;94.34;99550.81;5047885;28;20025;-65
2021/12/21 06:00:51;;;;;;;47.00;14.48;;;;;;;-4.03;94.30;99555.22;5047844;28;20032;-65
2021/12/21 06:03:16;;;;;;;42.20;12.35;;;;;;;-4.00;94.00;99551.94;5047666;28;20025;-65
2021/12/21 06:05:43;;;;;;;51.88;16.83;;;;;;;-4.08;94.21;99551.56;5047857;28;20032;-65
2021/12/21 06:08:09;;;;;;;75.97;22.02;;;;;;;-4.18;93.50;99556.13;5048002;28;20028;-65
2021/12/21 06:10:39;;;;;;;83.03;24.27;;;;;;;-4.19;93.99;99559.47;5079904;28;20233;-65
2021/12/21 06:26:12;;;;;;;55.63;18.20;;;;;;;-4.43;93.37;99557.41;5046479;28;20041;-65
2021/12/21 06:28:38;;;;;;;61.33;19.40;;;;;;;-4.32;93.49;99554.50;5046343;28;20017;-65
2021/12/21 06:31:04;;;;;;;61.35;19.20;;;;;;;-4.38;93.45;99554.19;5045965;28;20037;-65
2021/12/21 06:33:30;;;;;;;47.83;14.88;;;;;;;-4.51;93.76;99548.41;5046279;28;20048;-65
2021/12/21 06:35:55;;;;;;;41.42;13.30;;;;;;;-4.38;93.02;99538.75;5046249;28;20029;-65
2021/12/21 06:38:22;;;;;;;41.17;13.68;;;;;;;-4.47;92.84;99536.59;5046214;28;20044;-65
2021/12/21 06:40:48;;;;;;;44.35;11.88;;;;;;;-4.44;92.75;99533.34;5046120;28;20128;-65
2021/12/21 06:43:15;;;;;;;38.40;13.85;;;;;;;-4.43;92.89;99529.94;5047056;28;20240;-65
2021/12/21 06:53:38;;;;;;;40.83;13.65;;;;;;;-4.61;92.37;99533.31;5046912;28;20311;-65
2021/12/21 06:56:05;;;;;;;61.83;20.15;;;;;;;-4.71;92.61;99522.47;5046830;28;20285;-65
2021/12/21 06:58:30;;;;;;;46.20;16.60;;;;;;;-4.68;92.98;99536.34;5046751;28;20071;-65
2021/12/21 07:00:56;;;;;;;50.88;15.60;;;;;;;-4.67;92.95;99524.38;5046721;28;20384;-65
2021/12/21 07:03:23;;;;;;;48.53;16.35;;;;;;;-4.65;93.12;99543.34;5046548;28;20397;-65
2021/12/21 07:05:49;;;;;;;51.97;16.80;;;;;;;-4.63;93.36;99546.84;5046273;28;20198;-65
2021/12/21 07:08:22;;;;;;;45.00;15.30;;;;;;;-4.57;92.75;99542.94;5045642;28;20033;-65
2021/12/21 07:11:07;;;;;;;44.33;14.93;;;;;;;-4.57;91.92;99544.63;5046526;28;20017;-65
2021/12/21 07:19:00;;;;;;;40.45;13.60;;;;;;;-4.49;92.49;99546.78;5046297;28;20087;-65
2021/12/21 07:21:26;;;;;;;41.10;12.00;;;;;;;-4.53;92.17;99544.88;5046369;28;20241;-65
2021/12/21 07:23:51;;;;;;;51.33;14.52;;;;;;;-4.69;92.98;99537.13;5046228;28;20026;-65
2021/12/21 07:26:17;;;;;;;49.10;15.25;;;;;;;-4.81;93.56;99540.75;5046260;28;20025;-65
2021/12/21 07:28:43;;;;;;;49.40;12.45;;;;;;;-4.79;94.94;99547.72;5046195;28;20067;-65
2021/12/21 07:31:09;;;;;;;29.75;11.45;;;;;;;-4.60;94.63;99547.91;5046166;28;20025;-65
2021/12/21 07:33:35;;;;;;;43.38;13.43;;;;;;;-4.55;94.29;99556.72;5046134;28;20032;-65
2021/12/21 07:36:00;;;;;;;45.22;13.93;;;;;;;-4.49;94.31;99551.94;5046140;28;20096;-65
2021/12/21 07:38:30;;;;;;;38.03;12.15;;;;;;;-4.50;93.63;99550.16;5046050;28;20029;-65
2021/12/21 07:41:00;;;;;;;28.90;11.52;;;;;;;-4.47;93.36;99545.19;5045145;28;20088;-65
2021/12/21 07:43:25;;;;;;;28.38;10.82;;;;;;;-4.54;93.67;99553.38;5045453;28;20321;-65
2021/12/21 07:45:52;;;;;;;95.35;31.25;;;;;;;-4.47;94.26;99553.72;5045901;28;20028;-65
2021/12/21 07:48:18;;;;;;;168.27;49.50;;;;;;;-4.46;94.24;99557.22;5045882;28;20031;-65
2021/12/21 07:50:46;;;;;;;174.02;52.03;;;;;;;-4.44;94.25;99574.44;5045775;28;20025;-65
2021/12/21 07:53:13;;;;;;;123.47;35.38;;;;;;;-4.42;93.75;99559.16;5046019;28;20017;-65
2021/12/21 07:55:39;;;;;;;92.47;30.45;;;;;;;-4.35;92.81;99559.47;5046013;28;20021;-65
2021/12/21 07:58:04;;;;;;;91.05;35.58;;;;;;;-4.55;93.27;99543.88;5045632;28;20225;-66
2021/12/21 08:00:30;;;;;;;97.40;39.63;;;;;;;-4.67;93.39;99550.97;5044305;28;20379;-65
2021/12/21 08:02:57;;;;;;;44.40;20.20;;;;;;;-4.63;93.21;99552.00;5041534;28;20025;-65
2021/12/21 08:05:22;;;;;;;105.30;32.72;;;;;;;-4.68;93.75;99544.03;5035550;28;20054;-65
2021/12/21 08:07:56;;;;;;;55.55;18.90;;;;;;;-4.71;93.23;99543.88;5034068;28;20048;-65
2021/12/21 08:10:40;;;;;;;110.60;28.75;;;;;;;-4.49;92.85;99540.78;5033735;28;20018;-65
2021/12/21 08:13:06;;;;;;;100.30;36.40;;;;;;;-4.39;91.65;99547.28;5035262;28;20372;-65
2021/12/21 08:15:31;;;;;;;105.18;38.20;;;;;;;-4.32;92.11;99557.97;5034707;28;20025;-65
2021/12/21 08:17:57;;;;;;;104.43;36.05;;;;;;;-4.20;92.81;99568.00;5036370;28;20308;-65
2021/12/21 08:20:22;;;;;;;99.38;34.80;;;;;;;-4.13;92.67;99570.09;5044164;28;20053;-65
2021/12/21 08:22:48;;;;;;;83.82;29.88;;;;;;;-3.98;93.18;99583.75;5044185;28;20317;-65
2021/12/21 08:25:14;;;;;;;86.28;31.33;;;;;;;-3.83;92.87;99581.97;5044243;28;20063;-65
2021/12/21 08:27:39;;;;;;;64.47;24.52;;;;;;;-3.09;93.57;99597.81;5043992;28;20025;-65
2021/12/21 08:30:05;;;;;;;49.35;19.63;;;;;;;-1.92;91.72;99605.06;5027032;28;20022;-65
2021/12/21 08:32:31;;;;;;;28.48;10.32;;;;;;;-0.95;89.63;99598.09;5024241;28;20030;-65
2021/12/21 08:34:56;;;;;;;21.42;6.95;;;;;;;-0.15;87.19;99591.81;5024287;28;20100;-65
2021/12/21 08:37:21;;;;;;;24.85;8.02;;;;;;;0.36;84.05;99599.72;5024206;28;20017;-66
2021/12/21 08:39:47;;;;;;;22.65;8.15;;;;;;;0.70;82.75;99597.50;5024073;28;20021;-66
2021/12/21 08:42:14;;;;;;;29.83;9.82;;;;;;;1.23;80.36;99597.59;5039268;28;20314;-66
2021/12/21 08:44:43;;;;;;;43.50;16.80;;;;;;;1.64;77.28;99589.38;5044026;28;20025;-66
2021/12/21 08:47:10;;;;;;;48.40;19.90;;;;;;;2.27;73.28;99603.41;5044076;28;20072;-66
2021/12/21 08:49:35;;;;;;;66.97;29.02;;;;;;;2.39;71.90;99591.63;5033398;28;20017;-66
2021/12/21 08:52:01;;;;;;;61.92;27.23;;;;;;;2.76;71.90;99590.91;5023823;28;20348;-66
2021/12/21 08:54:26;;;;;;;67.57;29.60;;;;;;;2.75;71.61;99605.63;5023868;28;20018;-66
2021/12/21 08:56:52;;;;;;;70.55;30.08;;;;;;;3.00;70.99;99597.63;5023840;28;20025;-66
2021/12/21 08:59:18;;;;;;;55.85;24.73;;;;;;;3.43;71.48;99605.66;5024138;28;20179;-66
2021/12/21 09:01:45;;;;;;;50.88;21.80;;;;;;;3.90;70.44;99615.44;5023778;28;20026;-66
2021/12/21 09:04:11;;;;;;;28.40;13.85;;;;;;;3.91;69.66;99601.59;5023588;28;20017;-66
2021/12/21 09:06:37;;;;;;;23.65;6.85;;;;;;;4.24;71.62;99619.69;5023261;28;20032;-66
2021/12/21 09:09:04;;;;;;;22.30;7.38;;;;;;;4.84;69.68;99617.41;5023707;28;20037;-66
2021/12/21 09:11:30;;;;;;;19.90;6.60;;;;;;;3.82;71.68;99587.47;5046239;28;20211;-66
2021/12/21 09:13:55;;;;;;;17.38;6.82;;;;;;;4.02;72.45;99589.66;5057667;28;20017;-66
2021/12/21 09:16:21;;;;;;;28.65;9.65;;;;;;;4.29;71.70;99594.56;5031961;28;20037;-66
2021/12/21 09:18:46;;;;;;;22.40;9.73;;;;;;;4.19;72.25;99587.41;5043652;28;20351;-66
2021/12/21 09:21:12;;;;;;;20.02;6.57;;;;;;;4.10;71.26;99588.13;5063179;28;20024;-66
2021/12/21 09:23:39;;;;;;;18.92;6.32;;;;;;;4.34;71.42;99593.81;5063059;28;20255;-66
2021/12/21 09:26:05;;;;;;;17.00;5.68;;;;;;;4.60;71.21;99590.84;5063089;28;20351;-66
2021/12/21 09:28:31;;;;;;;9.45;4.63;;;;;;;4.52;70.70;99588.09;5063077;28;20028;-66
2021/12/21 09:30:56;;;;;;;14.30;5.55;;;;;;;4.36;71.26;99586.03;5062106;28;20028;-66
2021/12/21 09:33:28;;;;;;;18.05;4.55;;;;;;;4.36;71.34;99579.09;5062738;28;20074;-66
2021/12/21 09:35:55;;;;;;;18.08;5.57;;;;;;;3.95;73.56;99577.34;5027199;28;20025;-66
2021/12/21 09:38:20;;;;;;;14.60;5.07;;;;;;;3.48;74.92;99574.53;5023551;28;20099;-66
2021/12/21 09:40:46;;;;;;;18.73;5.22;;;;;;;2.92;77.30;99567.97;5023293;28;20314;-66
2021/12/21 09:43:12;;;;;;;15.27;4.82;;;;;;;2.71;78.62;99567.41;5023100;28;20090;-66
2021/12/21 09:45:38;;;;;;;14.95;5.30;;;;;;;3.03;78.88;99582.09;5022786;28;20049;-66
2021/12/21 09:48:06;;;;;;;18.02;5.20;;;;;;;2.48;80.49;99573.72;5023178;28;20025;-66
2021/12/21 09:50:33;;;;;;;11.50;4.78;;;;;;;2.44;80.94;99570.97;5025695;28;20103;-66
2021/12/21 09:52:58;;;;;;;12.73;4.25;;;;;;;2.14;82.19;99571.88;5033712;28;20294;-66
2021/12/21 09:55:24;;;;;;;10.60;4.75;;;;;;;2.04;82.78;99575.06;5033589;28;20022;-66
2021/12/21 09:57:52;;;;;;;21.65;5.45;;;;;;;1.94;83.32;99577.34;5030549;28;20381;-66
2021/12/21 10:00:25;;;;;;;12.40;4.90;;;;;;;1.93;83.93;99575.59;5030981;28;20059;-66
2021/12/21 10:02:51;;;;;;;18.52;5.03;;;;;;;2.05;82.94;99575.91;5041642;28;20060;-66
2021/12/21 10:05:21;;;;;;;11.10;4.60;;;;;;;1.81;83.78;99573.47;5042744;28;20017;-66
2021/12/21 10:08:01;;;;;;;18.98;5.22;;;;;;;2.01;83.89;99568.88;5043011;28;20236;-66
2021/12/21 10:10:31;;;;;;;14.18;4.35;;;;;;;1.98;83.64;99558.41;5042319;28;20029;-66
2021/12/21 10:13:11;;;;;;;18.13;5.20;;;;;;;1.90;83.72;99559.94;5042747;28;20250;-66
2021/12/21 10:15:44;;;;;;;13.88;4.78;;;;;;;2.02;83.65;99560.25;5045408;28;20092;-66
2021/12/21 10:18:09;;;;;;;13.48;5.00;;;;;;;1.92;83.74;99558.22;5054488;28;20025;-66
2021/12/21 10:20:47;;;;;;;14.82;5.13;;;;;;;1.88;84.19;99552.09;5042635;28;20286;-66
2021/12/21 10:23:17;;;;;;;20.17;5.18;;;;;;;1.86;84.43;99547.66;5055522;28;20025;-66
2021/12/21 10:25:56;;;;;;;15.15;4.95;;;;;;;1.93;83.26;99541.84;5062287;28;20028;-68
2021/12/21 10:28:31;;;;;;;13.25;4.43;;;;;;;2.05;83.80;99544.75;5062515;28;20036;-66
2021/12/21 10:30:58;;;;;;;16.95;4.53;;;;;;;1.95;83.46;99540.16;5062759;28;20017;-66
2021/12/21 10:33:26;;;;;;;23.95;4.63;;;;;;;2.12;82.59;99554.50;5062725;28;20012;-66
2021/12/21 10:35:57;;;;;;;11.98;4.25;;;;;;;2.26;80.05;99555.75;5062339;28;20064;-66
2021/12/21 10:38:28;;;;;;;16.10;3.90;;;;;;;2.12;80.35;99538.94;5061990;28;20093;-66
2021/12/21 10:40:54;;;;;;;14.63;4.40;;;;;;;2.22;79.85;99533.16;5062966;28;20032;-66
2021/12/21 10:43:20;;;;;;;16.27;4.78;;;;;;;2.23;80.09;99532.31;5066295;28;20305;-66
2021/12/21 10:45:47;;;;;;;15.27;5.13;;;;;;;2.26;79.40;99529.78;5066079;28;20031;-66
2021/12/21 10:48:16;;;;;;;15.63;5.00;;;;;;;2.28;80.16;99525.53;5066032;28;20032;-66
2021/12/21 10:50:44;;;;;;;15.95;5.13;;;;;;;2.41;80.26;99522.44;5059074;28;20033;-66
2021/12/21 10:53:23;;;;;;;14.63;4.05;;;;;;;2.45;79.58;99520.78;5050784;28;20028;-66
2021/12/21 10:56:06;;;;;;;9.95;4.40;;;;;;;2.68;79.73;99525.72;5050664;28;20360;-66
2021/12/21 10:58:37;;;;;;;13.20;4.50;;;;;;;2.67;79.12;99528.28;5045896;28;20032;-66
2021/12/21 11:01:05;;;;;;;13.10;4.05;;;;;;;2.68;79.23;99520.53;5045884;28;20025;-66
2021/12/21 11:03:35;;;;;;;13.00;4.03;;;;;;;2.67;80.26;99529.19;5038283;28;20056;-66
2021/12/21 11:06:18;;;;;;;15.88;4.18;;;;;;;2.73;79.36;99524.13;5031233;28;20096;-66
2021/12/21 11:08:49;;;;;;;8.70;3.53;;;;;;;2.80;79.18;99520.84;5035870;28;20021;-66
2021/12/21 11:11:32;;;;;;;15.40;4.60;;;;;;;2.84;78.98;99521.78;5034955;28;20021;-66
2021/12/21 11:14:08;;;;;;;18.17;4.07;;;;;;;2.88;78.56;99524.50;5031475;28;20020;-66
2021/12/21 11:16:51;;;;;;;16.58;3.58;;;;;;;2.78;77.90;99517.31;5035893;28;20025;-66
2021/12/21 11:19:19;;;;;;;16.50;5.18;;;;;;;2.86;78.19;99512.31;5041038;28;20105;-66
2021/12/21 11:21:46;;;;;;;18.63;4.55;;;;;;;2.97;78.51;99514.34;5045418;28;20048;-66
2021/12/21 11:24:17;;;;;;;13.98;3.78;;;;;;;2.99;77.87;99511.78;5043092;28;20041;-66
2021/12/21 11:26:45;;;;;;;12.98;4.60;;;;;;;2.95;78.10;99484.84;5036433;28;20017;-66
2021/12/21 11:29:13;;;;;;;13.35;3.63;;;;;;;2.95;77.49;99505.63;5034726;28;20018;-66
2021/12/21 11:31:41;;;;;;;11.00;4.10;;;;;;;2.91;76.89;99502.91;5033973;28;20072;-66
2021/12/21 11:34:15;;;;;;;20.05;4.40;;;;;;;3.08;76.62;99510.28;5032764;28;20018;-66
2021/12/21 11:39:38;;;;;;;9.48;3.50;;;;;;;3.43;75.06;99496.38;5025349;28;20028;-66
2021/12/21 11:42:06;;;;;;;10.60;3.83;;;;;;;3.40;74.40;99491.09;5024866;28;20072;-66
2021/12/21 11:44:50;;;;;;;13.82;4.10;;;;;;;3.46;74.02;99496.44;5025390;28;20059;-66
2021/12/21 11:47:24;;;;;;;13.90;4.50;;;;;;;3.42;71.88;99489.38;5025157;28;20225;-66
2021/12/21 11:49:54;;;;;;;10.05;3.83;;;;;;;3.52;74.51;99504.38;5025445;28;20103;-66
2021/12/21 11:52:22;;;;;;;6.85;2.85;;;;;;;3.49;72.79;99486.09;5024586;28;20076;-66
2021/12/21 11:55:17;;;;;;;15.88;4.13;;;;;;;3.59;72.09;99493.25;5024649;28;20018;-66
2021/12/21 11:57:49;;;;;;;12.05;4.15;;;;;;;3.71;71.25;99482.22;5024630;28;20038;-66
2021/12/21 12:00:22;;;;;;;8.88;2.97;;;;;;;3.75;71.50;99484.94;5024983;28;20029;-66
2021/12/21 12:02:49;;;;;;;11.23;4.43;;;;;;;3.87;69.45;99487.78;5026914;28;20023;-66
2021/12/21 12:05:27;;;;;;;9.18;3.10;;;;;;;3.62;69.09;99493.31;5044591;28;20329;-66
2021/12/21 12:08:06;;;;;;;12.38;3.78;;;;;;;3.65;68.70;99472.56;5044460;28;20029;-66
2021/12/21 12:10:34;;;;;;;10.57;4.05;;;;;;;3.70;68.63;99476.13;5044785;28;20033;-66
2021/12/21 12:13:24;;;;;;;17.33;3.85;;;;;;;3.75;68.10;99469.31;5044504;28;20045;-66
2021/12/21 12:15:59;;;;;;;10.15;3.85;;;;;;;3.79;67.36;99481.53;5044433;28;20096;-66
2021/12/21 12:18:34;;;;;;;17.10;3.95;;;;;;;3.68;68.53;99472.63;5044247;28;20050;-66
2021/12/21 12:21:18;;;;;;;9.93;4.47;;;;;;;3.67;68.08;99485.63;5044990;28;20033;-66
2021/12/21 12:23:53;;;;;;;11.93;4.72;;;;;;;3.69;67.00;99486.50;5045130;28;20033;-66
2021/12/21 12:26:29;;;;;;;12.02;4.15;;;;;;;3.57;67.28;99479.31;5045270;28;20088;-66
2021/12/21 12:28:57;;;;;;;12.43;5.18;;;;;;;3.50;68.38;99472.22;5045178;28;20029;-66
2021/12/21 12:31:27;;;;;;;7.72;3.35;;;;;;;3.55;68.31;99470.59;5044734;28;20220;-66
2021/12/21 12:33:52;;;;;;;6.55;3.00;;;;;;;3.53;68.20;99467.09;5045210;28;20186;-66
2021/12/21 12:36:18;;;;;;;10.70;3.60;;;;;;;3.59;67.21;99471.53;5044040;28;20032;-66
2021/12/21 12:38:45;;;;;;;12.52;3.33;;;;;;;3.56;67.54;99472.38;5043517;28;20348;-66
2021/12/21 12:41:13;;;;;;;11.77;3.20;;;;;;;3.56;67.32;99459.34;5031778;28;20088;-66
2021/12/21 12:43:44;;;;;;;8.50;3.13;;;;;;;3.70;66.35;99470.91;5044669;28;20221;-65